Weather at Gardner Municipal Airport

Public forecast

Using degrees Fahrenheit for public forecast. Weather courtesy of forecast.io.

Closest aviation weather report (METAR) to Gardner Municipal Airport

Closest report is New Century Aircenter Airport, 3.4 nm (6.3 km) ENE. Retrieved 2020/09/20 10:53 UTC (40 minutes ago):

KIXD 201053Z 13007KT 10SM CLR 12/08 A3024 RMK AO2 SLP236 T01170083

Closest aviation forecast (TAF) to Gardner Municipal Airport

Closest forecast is New Century Aircenter Airport, 3.4 nm (6.3 km) ENE. Retrieved 2020/09/20 06:22 UTC (5 hours ago):

TAF KIXD 200520Z 2006/2106 15010KT P6SM SCT250